sensor_id;sensor_type;location;lat;lon;timestamp;P1;durP1;ratioP1;P2;durP2;ratioP2
47635;SDS011;33364;50.766;15.338;2023-07-13T00:01:58;3.72;;;1.60;;
47635;SDS011;33364;50.766;15.338;2023-07-13T00:04:24;2.22;;;1.70;;
47635;SDS011;33364;50.766;15.338;2023-07-13T00:06:50;3.88;;;1.60;;
47635;SDS011;33364;50.766;15.338;2023-07-13T00:09:17;2.42;;;1.60;;
47635;SDS011;33364;50.766;15.338;2023-07-13T00:11:44;4.47;;;1.67;;
47635;SDS011;33364;50.766;15.338;2023-07-13T00:14:13;3.33;;;1.30;;
47635;SDS011;33364;50.766;15.338;2023-07-13T00:16:40;2.22;;;1.50;;
47635;SDS011;33364;50.766;15.338;2023-07-13T00:19:09;2.42;;;1.50;;
47635;SDS011;33364;50.766;15.338;2023-07-13T00:21:37;3.95;;;1.48;;
47635;SDS011;33364;50.766;15.338;2023-07-13T00:24:05;2.45;;;1.95;;
47635;SDS011;33364;50.766;15.338;2023-07-13T00:26:31;3.85;;;1.55;;
47635;SDS011;33364;50.766;15.338;2023-07-13T00:28:58;2.08;;;1.30;;
47635;SDS011;33364;50.766;15.338;2023-07-13T00:31:24;2.55;;;1.35;;
47635;SDS011;33364;50.766;15.338;2023-07-13T00:33:50;1.88;;;1.40;;
47635;SDS011;33364;50.766;15.338;2023-07-13T00:36:16;3.53;;;1.58;;
47635;SDS011;33364;50.766;15.338;2023-07-13T00:38:42;2.55;;;1.75;;
47635;SDS011;33364;50.766;15.338;2023-07-13T00:41:08;4.45;;;1.60;;
47635;SDS011;33364;50.766;15.338;2023-07-13T00:43:35;2.15;;;1.30;;
47635;SDS011;33364;50.766;15.338;2023-07-13T00:48:27;2.53;;;1.50;;
47635;SDS011;33364;50.766;15.338;2023-07-13T00:50:56;2.88;;;1.42;;
47635;SDS011;33364;50.766;15.338;2023-07-13T00:53:27;4.75;;;1.63;;
47635;SDS011;33364;50.766;15.338;2023-07-13T00:55:56;2.00;;;1.48;;
47635;SDS011;33364;50.766;15.338;2023-07-13T00:58:24;3.58;;;1.98;;
47635;SDS011;33364;50.766;15.338;2023-07-13T01:00:51;2.97;;;1.55;;
47635;SDS011;33364;50.766;15.338;2023-07-13T01:03:17;3.42;;;1.70;;
47635;SDS011;33364;50.766;15.338;2023-07-13T01:05:44;1.92;;;1.50;;
47635;SDS011;33364;50.766;15.338;2023-07-13T01:08:14;5.55;;;1.27;;
47635;SDS011;33364;50.766;15.338;2023-07-13T01:10:39;4.57;;;1.60;;
47635;SDS011;33364;50.766;15.338;2023-07-13T01:13:06;8.05;;;1.90;;
47635;SDS011;33364;50.766;15.338;2023-07-13T01:18:08;3.53;;;1.60;;
47635;SDS011;33364;50.766;15.338;2023-07-13T01:20:36;2.10;;;1.50;;
47635;SDS011;33364;50.766;15.338;2023-07-13T01:23:07;3.90;;;1.52;;
47635;SDS011;33364;50.766;15.338;2023-07-13T01:25:35;2.92;;;1.13;;
47635;SDS011;33364;50.766;15.338;2023-07-13T01:28:03;7.35;;;1.70;;
47635;SDS011;33364;50.766;15.338;2023-07-13T01:30:30;5.85;;;1.52;;
47635;SDS011;33364;50.766;15.338;2023-07-13T01:32:57;3.17;;;1.48;;
47635;SDS011;33364;50.766;15.338;2023-07-13T01:35:24;3.65;;;1.55;;
47635;SDS011;33364;50.766;15.338;2023-07-13T01:37:52;4.65;;;2.08;;
47635;SDS011;33364;50.766;15.338;2023-07-13T01:40:18;5.20;;;1.83;;
47635;SDS011;33364;50.766;15.338;2023-07-13T01:42:45;3.30;;;1.55;;
47635;SDS011;33364;50.766;15.338;2023-07-13T01:45:11;5.03;;;1.70;;
47635;SDS011;33364;50.766;15.338;2023-07-13T01:47:37;3.35;;;1.50;;
47635;SDS011;33364;50.766;15.338;2023-07-13T01:50:03;2.80;;;1.70;;
47635;SDS011;33364;50.766;15.338;2023-07-13T01:52:29;2.30;;;1.55;;
47635;SDS011;33364;50.766;15.338;2023-07-13T01:54:55;4.05;;;1.63;;
47635;SDS011;33364;50.766;15.338;2023-07-13T01:57:20;3.42;;;1.58;;
47635;SDS011;33364;50.766;15.338;2023-07-13T01:59:46;2.33;;;1.60;;
47635;SDS011;33364;50.766;15.338;2023-07-13T02:02:12;4.78;;;2.20;;
47635;SDS011;33364;50.766;15.338;2023-07-13T02:04:38;4.10;;;1.77;;
47635;SDS011;33364;50.766;15.338;2023-07-13T02:07:04;5.15;;;1.98;;
47635;SDS011;33364;50.766;15.338;2023-07-13T02:09:30;10.20;;;2.80;;
47635;SDS011;33364;50.766;15.338;2023-07-13T02:11:56;8.55;;;2.78;;
47635;SDS011;33364;50.766;15.338;2023-07-13T02:14:22;6.40;;;3.92;;
47635;SDS011;33364;50.766;15.338;2023-07-13T02:16:48;6.18;;;2.45;;
47635;SDS011;33364;50.766;15.338;2023-07-13T02:19:14;6.28;;;2.30;;
47635;SDS011;33364;50.766;15.338;2023-07-13T02:21:40;4.47;;;2.85;;
47635;SDS011;33364;50.766;15.338;2023-07-13T02:24:07;8.65;;;2.65;;
47635;SDS011;33364;50.766;15.338;2023-07-13T02:26:33;8.55;;;2.60;;
47635;SDS011;33364;50.766;15.338;2023-07-13T02:28:59;6.43;;;2.58;;
47635;SDS011;33364;50.766;15.338;2023-07-13T02:31:25;6.57;;;2.58;;
47635;SDS011;33364;50.766;15.338;2023-07-13T02:33:51;4.07;;;2.33;;
47635;SDS011;33364;50.766;15.338;2023-07-13T02:36:17;4.55;;;2.38;;
47635;SDS011;33364;50.766;15.338;2023-07-13T02:38:44;3.40;;;2.58;;
47635;SDS011;33364;50.766;15.338;2023-07-13T02:41:09;4.63;;;2.53;;
47635;SDS011;33364;50.766;15.338;2023-07-13T02:43:38;6.03;;;2.88;;
47635;SDS011;33364;50.766;15.338;2023-07-13T02:46:03;3.55;;;2.28;;
47635;SDS011;33364;50.766;15.338;2023-07-13T02:48:33;3.90;;;2.33;;
47635;SDS011;33364;50.766;15.338;2023-07-13T02:50:59;4.00;;;2.50;;
47635;SDS011;33364;50.766;15.338;2023-07-13T02:53:25;4.32;;;2.10;;
47635;SDS011;33364;50.766;15.338;2023-07-13T02:55:52;5.97;;;2.42;;
47635;SDS011;33364;50.766;15.338;2023-07-13T02:58:18;7.25;;;2.38;;
47635;SDS011;33364;50.766;15.338;2023-07-13T03:00:44;7.38;;;2.92;;
47635;SDS011;33364;50.766;15.338;2023-07-13T03:03:12;8.18;;;2.92;;
47635;SDS011;33364;50.766;15.338;2023-07-13T03:05:40;4.30;;;2.53;;
47635;SDS011;33364;50.766;15.338;2023-07-13T03:08:11;8.65;;;2.60;;
47635;SDS011;33364;50.766;15.338;2023-07-13T03:10:37;5.55;;;3.30;;
47635;SDS011;33364;50.766;15.338;2023-07-13T03:13:05;4.78;;;2.47;;
47635;SDS011;33364;50.766;15.338;2023-07-13T03:15:31;3.30;;;2.47;;
47635;SDS011;33364;50.766;15.338;2023-07-13T03:17:57;6.25;;;2.60;;
47635;SDS011;33364;50.766;15.338;2023-07-13T03:20:23;3.97;;;1.98;;
47635;SDS011;33364;50.766;15.338;2023-07-13T03:22:49;4.05;;;2.00;;
47635;SDS011;33364;50.766;15.338;2023-07-13T03:25:14;2.50;;;1.48;;
47635;SDS011;33364;50.766;15.338;2023-07-13T03:27:40;3.13;;;1.73;;
47635;SDS011;33364;50.766;15.338;2023-07-13T03:30:06;2.50;;;1.55;;
47635;SDS011;33364;50.766;15.338;2023-07-13T03:32:33;2.15;;;1.55;;
47635;SDS011;33364;50.766;15.338;2023-07-13T03:34:59;3.97;;;1.52;;
47635;SDS011;33364;50.766;15.338;2023-07-13T03:37:25;3.13;;;1.42;;
47635;SDS011;33364;50.766;15.338;2023-07-13T03:39:50;2.70;;;1.60;;
47635;SDS011;33364;50.766;15.338;2023-07-13T03:42:16;2.42;;;1.20;;
47635;SDS011;33364;50.766;15.338;2023-07-13T03:44:42;2.30;;;1.38;;
47635;SDS011;33364;50.766;15.338;2023-07-13T03:47:11;5.57;;;3.38;;
47635;SDS011;33364;50.766;15.338;2023-07-13T03:49:37;1.67;;;1.30;;
47635;SDS011;33364;50.766;15.338;2023-07-13T03:52:03;2.35;;;1.45;;
47635;SDS011;33364;50.766;15.338;2023-07-13T03:54:29;3.85;;;1.63;;
47635;SDS011;33364;50.766;15.338;2023-07-13T03:56:55;3.30;;;1.58;;
47635;SDS011;33364;50.766;15.338;2023-07-13T03:59:21;2.15;;;1.52;;
47635;SDS011;33364;50.766;15.338;2023-07-13T04:01:47;2.55;;;1.50;;
47635;SDS011;33364;50.766;15.338;2023-07-13T04:04:12;1.50;;;1.20;;
47635;SDS011;33364;50.766;15.338;2023-07-13T04:06:38;1.70;;;1.40;;
47635;SDS011;33364;50.766;15.338;2023-07-13T04:09:04;3.40;;;1.40;;
47635;SDS011;33364;50.766;15.338;2023-07-13T04:11:34;4.68;;;1.55;;
47635;SDS011;33364;50.766;15.338;2023-07-13T04:14:01;2.42;;;1.30;;
47635;SDS011;33364;50.766;15.338;2023-07-13T04:16:28;1.38;;;1.00;;
47635;SDS011;33364;50.766;15.338;2023-07-13T04:18:54;3.92;;;1.50;;
47635;SDS011;33364;50.766;15.338;2023-07-13T04:21:25;1.50;;;1.20;;
47635;SDS011;33364;50.766;15.338;2023-07-13T04:23:55;2.03;;;1.55;;
47635;SDS011;33364;50.766;15.338;2023-07-13T04:26:21;3.00;;;1.48;;
47635;SDS011;33364;50.766;15.338;2023-07-13T04:28:48;1.60;;;1.40;;
47635;SDS011;33364;50.766;15.338;2023-07-13T04:31:14;2.47;;;1.60;;
47635;SDS011;33364;50.766;15.338;2023-07-13T04:33:40;2.72;;;1.58;;
47635;SDS011;33364;50.766;15.338;2023-07-13T04:36:06;3.97;;;1.85;;
47635;SDS011;33364;50.766;15.338;2023-07-13T04:38:32;3.35;;;1.90;;
47635;SDS011;33364;50.766;15.338;2023-07-13T04:41:00;5.20;;;1.80;;
47635;SDS011;33364;50.766;15.338;2023-07-13T04:43:28;3.63;;;1.80;;
47635;SDS011;33364;50.766;15.338;2023-07-13T04:45:55;3.80;;;2.20;;
47635;SDS011;33364;50.766;15.338;2023-07-13T04:48:21;3.25;;;1.85;;
47635;SDS011;33364;50.766;15.338;2023-07-13T04:50:53;4.57;;;2.50;;
47635;SDS011;33364;50.766;15.338;2023-07-13T04:53:20;6.55;;;2.50;;
47635;SDS011;33364;50.766;15.338;2023-07-13T04:55:46;2.83;;;2.03;;
47635;SDS011;33364;50.766;15.338;2023-07-13T04:58:12;5.53;;;2.17;;
47635;SDS011;33364;50.766;15.338;2023-07-13T05:00:38;3.42;;;1.77;;
47635;SDS011;33364;50.766;15.338;2023-07-13T05:03:04;3.67;;;1.50;;
47635;SDS011;33364;50.766;15.338;2023-07-13T05:05:31;4.63;;;1.60;;
47635;SDS011;33364;50.766;15.338;2023-07-13T05:07:56;4.28;;;2.00;;
47635;SDS011;33364;50.766;15.338;2023-07-13T05:10:22;3.22;;;1.13;;
47635;SDS011;33364;50.766;15.338;2023-07-13T05:12:49;3.17;;;1.75;;
47635;SDS011;33364;50.766;15.338;2023-07-13T05:15:15;1.95;;;0.98;;
47635;SDS011;33364;50.766;15.338;2023-07-13T05:17:41;2.63;;;1.40;;
47635;SDS011;33364;50.766;15.338;2023-07-13T05:20:07;7.40;;;1.30;;
47635;SDS011;33364;50.766;15.338;2023-07-13T05:22:34;2.63;;;1.02;;
47635;SDS011;33364;50.766;15.338;2023-07-13T05:25:01;2.67;;;1.25;;
47635;SDS011;33364;50.766;15.338;2023-07-13T05:27:30;3.35;;;1.48;;
47635;SDS011;33364;50.766;15.338;2023-07-13T05:29:56;2.00;;;1.20;;
47635;SDS011;33364;50.766;15.338;2023-07-13T05:32:21;3.85;;;1.58;;
47635;SDS011;33364;50.766;15.338;2023-07-13T05:34:47;3.15;;;1.30;;
47635;SDS011;33364;50.766;15.338;2023-07-13T05:37:13;4.78;;;1.55;;
47635;SDS011;33364;50.766;15.338;2023-07-13T05:39:39;2.10;;;1.45;;
47635;SDS011;33364;50.766;15.338;2023-07-13T05:42:05;4.45;;;1.40;;
47635;SDS011;33364;50.766;15.338;2023-07-13T05:44:31;3.08;;;1.20;;
47635;SDS011;33364;50.766;15.338;2023-07-13T05:46:57;1.95;;;1.10;;
47635;SDS011;33364;50.766;15.338;2023-07-13T05:49:23;2.13;;;1.48;;
47635;SDS011;33364;50.766;15.338;2023-07-13T05:51:49;2.10;;;1.23;;
47635;SDS011;33364;50.766;15.338;2023-07-13T05:54:15;2.88;;;1.73;;
47635;SDS011;33364;50.766;15.338;2023-07-13T05:56:40;2.67;;;1.30;;
47635;SDS011;33364;50.766;15.338;2023-07-13T05:59:06;1.92;;;1.65;;
47635;SDS011;33364;50.766;15.338;2023-07-13T06:01:32;1.95;;;1.40;;
47635;SDS011;33364;50.766;15.338;2023-07-13T06:03:59;2.20;;;1.20;;
47635;SDS011;33364;50.766;15.338;2023-07-13T06:06:24;2.65;;;1.20;;
47635;SDS011;33364;50.766;15.338;2023-07-13T06:08:50;3.55;;;1.40;;
47635;SDS011;33364;50.766;15.338;2023-07-13T06:11:17;1.77;;;1.17;;
47635;SDS011;33364;50.766;15.338;2023-07-13T06:13:45;2.45;;;1.05;;
47635;SDS011;33364;50.766;15.338;2023-07-13T06:16:12;2.35;;;1.20;;
47635;SDS011;33364;50.766;15.338;2023-07-13T06:18:38;1.60;;;1.13;;
47635;SDS011;33364;50.766;15.338;2023-07-13T06:21:12;1.60;;;1.20;;
47635;SDS011;33364;50.766;15.338;2023-07-13T06:23:40;1.77;;;1.52;;
47635;SDS011;33364;50.766;15.338;2023-07-13T06:26:06;1.70;;;1.23;;
47635;SDS011;33364;50.766;15.338;2023-07-13T06:28:33;2.60;;;1.40;;
47635;SDS011;33364;50.766;15.338;2023-07-13T06:31:00;1.95;;;1.25;;
47635;SDS011;33364;50.766;15.338;2023-07-13T06:33:27;2.08;;;1.10;;
47635;SDS011;33364;50.766;15.338;2023-07-13T06:35:53;1.30;;;1.20;;
47635;SDS011;33364;50.766;15.338;2023-07-13T06:38:20;1.55;;;1.10;;
47635;SDS011;33364;50.766;15.338;2023-07-13T06:40:46;1.90;;;1.10;;
47635;SDS011;33364;50.766;15.338;2023-07-13T06:43:12;2.33;;;1.77;;
47635;SDS011;33364;50.766;15.338;2023-07-13T06:45:42;1.67;;;1.20;;
47635;SDS011;33364;50.766;15.338;2023-07-13T06:48:14;1.20;;;1.10;;
47635;SDS011;33364;50.766;15.338;2023-07-13T06:50:44;3.80;;;1.10;;
47635;SDS011;33364;50.766;15.338;2023-07-13T06:53:11;1.35;;;1.20;;
47635;SDS011;33364;50.766;15.338;2023-07-13T06:55:37;3.17;;;1.58;;
47635;SDS011;33364;50.766;15.338;2023-07-13T06:58:04;2.80;;;1.40;;
47635;SDS011;33364;50.766;15.338;2023-07-13T07:00:30;1.75;;;1.35;;
47635;SDS011;33364;50.766;15.338;2023-07-13T07:02:56;3.60;;;1.15;;
47635;SDS011;33364;50.766;15.338;2023-07-13T07:05:21;1.30;;;1.17;;
47635;SDS011;33364;50.766;15.338;2023-07-13T07:07:49;4.22;;;1.30;;
47635;SDS011;33364;50.766;15.338;2023-07-13T07:10:15;2.13;;;1.27;;
47635;SDS011;33364;50.766;15.338;2023-07-13T07:12:42;2.13;;;1.45;;
47635;SDS011;33364;50.766;15.338;2023-07-13T07:15:07;1.45;;;1.05;;
47635;SDS011;33364;50.766;15.338;2023-07-13T07:17:34;2.65;;;1.40;;
47635;SDS011;33364;50.766;15.338;2023-07-13T07:19:59;1.75;;;1.30;;
47635;SDS011;33364;50.766;15.338;2023-07-13T07:22:25;2.00;;;1.40;;
47635;SDS011;33364;50.766;15.338;2023-07-13T07:24:53;1.35;;;1.00;;
47635;SDS011;33364;50.766;15.338;2023-07-13T07:27:19;3.03;;;1.27;;
47635;SDS011;33364;50.766;15.338;2023-07-13T07:29:45;1.67;;;1.10;;
47635;SDS011;33364;50.766;15.338;2023-07-13T07:32:11;1.33;;;1.10;;
47635;SDS011;33364;50.766;15.338;2023-07-13T07:34:37;1.38;;;1.15;;
47635;SDS011;33364;50.766;15.338;2023-07-13T07:37:03;2.90;;;1.13;;
47635;SDS011;33364;50.766;15.338;2023-07-13T07:39:29;3.55;;;1.40;;
47635;SDS011;33364;50.766;15.338;2023-07-13T07:41:55;3.22;;;1.17;;
47635;SDS011;33364;50.766;15.338;2023-07-13T07:44:21;2.83;;;1.42;;
47635;SDS011;33364;50.766;15.338;2023-07-13T07:46:47;2.45;;;1.10;;
47635;SDS011;33364;50.766;15.338;2023-07-13T07:49:13;2.28;;;1.38;;
47635;SDS011;33364;50.766;15.338;2023-07-13T07:51:39;1.27;;;1.08;;
47635;SDS011;33364;50.766;15.338;2023-07-13T07:54:05;1.83;;;1.17;;
47635;SDS011;33364;50.766;15.338;2023-07-13T07:56:32;3.05;;;1.33;;
47635;SDS011;33364;50.766;15.338;2023-07-13T07:58:58;2.33;;;1.42;;
47635;SDS011;33364;50.766;15.338;2023-07-13T08:01:24;1.27;;;1.17;;
47635;SDS011;33364;50.766;15.338;2023-07-13T08:03:50;3.72;;;1.40;;
47635;SDS011;33364;50.766;15.338;2023-07-13T08:06:15;2.58;;;1.15;;
47635;SDS011;33364;50.766;15.338;2023-07-13T08:08:41;6.90;;;1.63;;
47635;SDS011;33364;50.766;15.338;2023-07-13T08:11:08;1.92;;;1.10;;
47635;SDS011;33364;50.766;15.338;2023-07-13T08:13:34;4.40;;;1.80;;
47635;SDS011;33364;50.766;15.338;2023-07-13T08:16:00;2.55;;;1.20;;
47635;SDS011;33364;50.766;15.338;2023-07-13T08:18:26;2.90;;;1.00;;
47635;SDS011;33364;50.766;15.338;2023-07-13T08:20:54;5.45;;;1.35;;
47635;SDS011;33364;50.766;15.338;2023-07-13T08:23:22;1.63;;;1.00;;
47635;SDS011;33364;50.766;15.338;2023-07-13T08:25:52;3.67;;;1.70;;
47635;SDS011;33364;50.766;15.338;2023-07-13T08:28:19;2.75;;;1.35;;
47635;SDS011;33364;50.766;15.338;2023-07-13T08:30:45;4.22;;;1.20;;
47635;SDS011;33364;50.766;15.338;2023-07-13T08:33:20;2.08;;;1.13;;
47635;SDS011;33364;50.766;15.338;2023-07-13T08:35:49;1.70;;;1.20;;
47635;SDS011;33364;50.766;15.338;2023-07-13T08:38:16;3.17;;;1.10;;
47635;SDS011;33364;50.766;15.338;2023-07-13T08:40:43;3.35;;;1.33;;
47635;SDS011;33364;50.766;15.338;2023-07-13T08:43:14;3.47;;;1.27;;
47635;SDS011;33364;50.766;15.338;2023-07-13T08:45:43;1.60;;;1.20;;
47635;SDS011;33364;50.766;15.338;2023-07-13T08:48:35;2.88;;;1.40;;
47635;SDS011;33364;50.766;15.338;2023-07-13T08:54:04;2.53;;;1.17;;
47635;SDS011;33364;50.766;15.338;2023-07-13T08:56:38;2.40;;;1.40;;
47635;SDS011;33364;50.766;15.338;2023-07-13T08:59:06;2.88;;;1.30;;
47635;SDS011;33364;50.766;15.338;2023-07-13T09:01:54;5.47;;;1.25;;
47635;SDS011;33364;50.766;15.338;2023-07-13T09:04:27;3.72;;;1.38;;
47635;SDS011;33364;50.766;15.338;2023-07-13T09:07:10;9.02;;;1.63;;
47635;SDS011;33364;50.766;15.338;2023-07-13T09:12:25;4.90;;;1.23;;
47635;SDS011;33364;50.766;15.338;2023-07-13T09:15:01;3.47;;;1.17;;
47635;SDS011;33364;50.766;15.338;2023-07-13T09:17:41;2.30;;;1.08;;
47635;SDS011;33364;50.766;15.338;2023-07-13T09:20:22;2.88;;;1.40;;
47635;SDS011;33364;50.766;15.338;2023-07-13T09:22:52;2.35;;;1.38;;
47635;SDS011;33364;50.766;15.338;2023-07-13T09:27:57;3.15;;;1.27;;
47635;SDS011;33364;50.766;15.338;2023-07-13T09:31:15;3.80;;;2.08;;
47635;SDS011;33364;50.766;15.338;2023-07-13T09:33:32;3.33;;;1.50;;
47635;SDS011;33364;50.766;15.338;2023-07-13T09:36:00;7.10;;;1.55;;
47635;SDS011;33364;50.766;15.338;2023-07-13T09:38:28;1.92;;;1.63;;
47635;SDS011;33364;50.766;15.338;2023-07-13T09:41:01;2.53;;;1.23;;
47635;SDS011;33364;50.766;15.338;2023-07-13T09:43:28;3.78;;;1.52;;
47635;SDS011;33364;50.766;15.338;2023-07-13T09:45:54;2.65;;;1.10;;
47635;SDS011;33364;50.766;15.338;2023-07-13T09:48:21;4.35;;;1.45;;
47635;SDS011;33364;50.766;15.338;2023-07-13T09:50:47;1.67;;;1.13;;
47635;SDS011;33364;50.766;15.338;2023-07-13T09:53:17;2.88;;;1.30;;
47635;SDS011;33364;50.766;15.338;2023-07-13T09:55:45;3.80;;;1.63;;
47635;SDS011;33364;50.766;15.338;2023-07-13T09:58:13;3.15;;;1.35;;
47635;SDS011;33364;50.766;15.338;2023-07-13T10:00:58;3.25;;;1.52;;
47635;SDS011;33364;50.766;15.338;2023-07-13T10:03:31;5.28;;;1.60;;
47635;SDS011;33364;50.766;15.338;2023-07-13T10:08:45;2.63;;;1.30;;
47635;SDS011;33364;50.766;15.338;2023-07-13T10:11:26;3.20;;;1.40;;
47635;SDS011;33364;50.766;15.338;2023-07-13T10:16:59;4.45;;;1.50;;
47635;SDS011;33364;50.766;15.338;2023-07-13T10:19:31;7.50;;;1.40;;
47635;SDS011;33364;50.766;15.338;2023-07-13T10:22:00;1.92;;;1.48;;
47635;SDS011;33364;50.766;15.338;2023-07-13T10:24:40;2.83;;;1.40;;
47635;SDS011;33364;50.766;15.338;2023-07-13T10:29:36;3.13;;;1.10;;
47635;SDS011;33364;50.766;15.338;2023-07-13T10:32:09;2.70;;;1.27;;
47635;SDS011;33364;50.766;15.338;2023-07-13T10:34:37;6.05;;;1.55;;
47635;SDS011;33364;50.766;15.338;2023-07-13T10:37:05;2.30;;;1.48;;
47635;SDS011;33364;50.766;15.338;2023-07-13T10:39:34;4.22;;;1.20;;
47635;SDS011;33364;50.766;15.338;2023-07-13T10:42:04;1.67;;;1.58;;
47635;SDS011;33364;50.766;15.338;2023-07-13T10:44:35;4.30;;;1.50;;
47635;SDS011;33364;50.766;15.338;2023-07-13T10:47:02;4.00;;;1.40;;
47635;SDS011;33364;50.766;15.338;2023-07-13T10:49:32;2.70;;;1.15;;
47635;SDS011;33364;50.766;15.338;2023-07-13T10:52:00;2.75;;;1.42;;
47635;SDS011;33364;50.766;15.338;2023-07-13T10:54:31;2.60;;;1.27;;
47635;SDS011;33364;50.766;15.338;2023-07-13T10:59:48;3.80;;;1.35;;
47635;SDS011;33364;50.766;15.338;2023-07-13T11:02:34;1.77;;;1.20;;
47635;SDS011;33364;50.766;15.338;2023-07-13T11:05:01;5.10;;;1.60;;
47635;SDS011;33364;50.766;15.338;2023-07-13T11:08:33;2.35;;;1.40;;
47635;SDS011;33364;50.766;15.338;2023-07-13T11:13:35;3.97;;;1.20;;
47635;SDS011;33364;50.766;15.338;2023-07-13T11:17:03;3.55;;;1.23;;
47635;SDS011;33364;50.766;15.338;2023-07-13T11:21:31;2.45;;;1.30;;
47635;SDS011;33364;50.766;15.338;2023-07-13T11:24:04;3.38;;;1.33;;
47635;SDS011;33364;50.766;15.338;2023-07-13T11:26:41;2.78;;;1.13;;
47635;SDS011;33364;50.766;15.338;2023-07-13T11:29:24;5.35;;;1.95;;
47635;SDS011;33364;50.766;15.338;2023-07-13T11:37:03;2.28;;;1.30;;
47635;SDS011;33364;50.766;15.338;2023-07-13T11:39:36;4.30;;;1.55;;
47635;SDS011;33364;50.766;15.338;2023-07-13T11:42:11;2.58;;;1.27;;
47635;SDS011;33364;50.766;15.338;2023-07-13T11:44:42;5.05;;;1.40;;
47635;SDS011;33364;50.766;15.338;2023-07-13T11:47:14;2.45;;;1.35;;
47635;SDS011;33364;50.766;15.338;2023-07-13T11:49:48;2.22;;;1.33;;
47635;SDS011;33364;50.766;15.338;2023-07-13T11:52:17;2.90;;;1.42;;
47635;SDS011;33364;50.766;15.338;2023-07-13T11:55:03;2.88;;;1.20;;
47635;SDS011;33364;50.766;15.338;2023-07-13T11:57:44;2.40;;;1.20;;
47635;SDS011;33364;50.766;15.338;2023-07-13T12:00:13;2.60;;;1.50;;
47635;SDS011;33364;50.766;15.338;2023-07-13T12:02:43;4.47;;;1.30;;
47635;SDS011;33364;50.766;15.338;2023-07-13T12:05:11;3.65;;;1.75;;
47635;SDS011;33364;50.766;15.338;2023-07-13T12:07:40;2.10;;;1.25;;
47635;SDS011;33364;50.766;15.338;2023-07-13T12:12:48;1.92;;;1.23;;
47635;SDS011;33364;50.766;15.338;2023-07-13T12:15:18;2.22;;;1.60;;
47635;SDS011;33364;50.766;15.338;2023-07-13T12:17:45;4.90;;;1.75;;
47635;SDS011;33364;50.766;15.338;2023-07-13T12:20:21;2.88;;;1.25;;
47635;SDS011;33364;50.766;15.338;2023-07-13T12:22:50;2.55;;;1.23;;
47635;SDS011;33364;50.766;15.338;2023-07-13T12:25:17;4.90;;;1.60;;
47635;SDS011;33364;50.766;15.338;2023-07-13T12:27:47;1.75;;;1.40;;
47635;SDS011;33364;50.766;15.338;2023-07-13T12:30:22;3.67;;;1.40;;
47635;SDS011;33364;50.766;15.338;2023-07-13T12:32:56;5.28;;;1.50;;
47635;SDS011;33364;50.766;15.338;2023-07-13T12:35:24;2.50;;;1.30;;
47635;SDS011;33364;50.766;15.338;2023-07-13T12:37:52;2.20;;;1.40;;
47635;SDS011;33364;50.766;15.338;2023-07-13T12:40:19;4.55;;;1.65;;
47635;SDS011;33364;50.766;15.338;2023-07-13T12:42:48;3.30;;;1.27;;
47635;SDS011;33364;50.766;15.338;2023-07-13T12:45:20;2.88;;;1.40;;
47635;SDS011;33364;50.766;15.338;2023-07-13T12:47:53;2.20;;;1.42;;
47635;SDS011;33364;50.766;15.338;2023-07-13T12:50:21;2.72;;;1.40;;
47635;SDS011;33364;50.766;15.338;2023-07-13T12:52:56;3.75;;;1.60;;
47635;SDS011;33364;50.766;15.338;2023-07-13T12:55:28;2.30;;;1.40;;
47635;SDS011;33364;50.766;15.338;2023-07-13T12:57:58;5.60;;;1.20;;
47635;SDS011;33364;50.766;15.338;2023-07-13T13:00:29;4.93;;;1.50;;
47635;SDS011;33364;50.766;15.338;2023-07-13T13:03:12;5.55;;;1.55;;
47635;SDS011;33364;50.766;15.338;2023-07-13T13:05:47;2.67;;;1.20;;
47635;SDS011;33364;50.766;15.338;2023-07-13T13:08:14;5.13;;;1.38;;
47635;SDS011;33364;50.766;15.338;2023-07-13T13:10:40;3.85;;;1.48;;
47635;SDS011;33364;50.766;15.338;2023-07-13T13:13:06;1.92;;;1.30;;
47635;SDS011;33364;50.766;15.338;2023-07-13T13:15:31;2.63;;;1.48;;
47635;SDS011;33364;50.766;15.338;2023-07-13T13:17:58;3.72;;;1.55;;
47635;SDS011;33364;50.766;15.338;2023-07-13T13:20:24;1.58;;;1.30;;
47635;SDS011;33364;50.766;15.338;2023-07-13T13:22:51;2.15;;;1.52;;
47635;SDS011;33364;50.766;15.338;2023-07-13T13:25:17;2.28;;;1.38;;
47635;SDS011;33364;50.766;15.338;2023-07-13T13:27:44;5.32;;;1.70;;
47635;SDS011;33364;50.766;15.338;2023-07-13T13:30:14;4.20;;;1.92;;
47635;SDS011;33364;50.766;15.338;2023-07-13T13:32:43;5.63;;;1.60;;
47635;SDS011;33364;50.766;15.338;2023-07-13T13:35:14;6.65;;;1.40;;
47635;SDS011;33364;50.766;15.338;2023-07-13T13:37:41;3.85;;;1.40;;
47635;SDS011;33364;50.766;15.338;2023-07-13T13:40:17;4.22;;;1.77;;
47635;SDS011;33364;50.766;15.338;2023-07-13T13:42:44;4.55;;;1.75;;
47635;SDS011;33364;50.766;15.338;2023-07-13T13:45:10;3.25;;;1.45;;
47635;SDS011;33364;50.766;15.338;2023-07-13T13:47:38;4.63;;;1.90;;
47635;SDS011;33364;50.766;15.338;2023-07-13T13:50:18;4.70;;;1.58;;
47635;SDS011;33364;50.766;15.338;2023-07-13T13:52:48;3.63;;;1.58;;
47635;SDS011;33364;50.766;15.338;2023-07-13T13:55:14;3.95;;;1.58;;
47635;SDS011;33364;50.766;15.338;2023-07-13T13:57:43;4.40;;;1.70;;
47635;SDS011;33364;50.766;15.338;2023-07-13T14:00:09;2.80;;;1.50;;
47635;SDS011;33364;50.766;15.338;2023-07-13T14:02:46;3.65;;;1.85;;
47635;SDS011;33364;50.766;15.338;2023-07-13T14:05:15;3.58;;;1.63;;
47635;SDS011;33364;50.766;15.338;2023-07-13T14:07:45;4.50;;;1.80;;
47635;SDS011;33364;50.766;15.338;2023-07-13T14:10:11;2.78;;;1.45;;
47635;SDS011;33364;50.766;15.338;2023-07-13T14:12:41;4.93;;;1.75;;
47635;SDS011;33364;50.766;15.338;2023-07-13T14:15:23;4.57;;;2.03;;
47635;SDS011;33364;50.766;15.338;2023-07-13T14:17:51;5.38;;;2.00;;
47635;SDS011;33364;50.766;15.338;2023-07-13T14:20:20;4.28;;;1.90;;
47635;SDS011;33364;50.766;15.338;2023-07-13T14:22:49;3.85;;;1.42;;
47635;SDS011;33364;50.766;15.338;2023-07-13T14:25:17;4.38;;;1.67;;
47635;SDS011;33364;50.766;15.338;2023-07-13T14:27:44;4.38;;;2.13;;
47635;SDS011;33364;50.766;15.338;2023-07-13T14:30:13;3.40;;;1.70;;
47635;SDS011;33364;50.766;15.338;2023-07-13T14:32:44;6.50;;;1.75;;
47635;SDS011;33364;50.766;15.338;2023-07-13T14:35:14;5.90;;;2.08;;
47635;SDS011;33364;50.766;15.338;2023-07-13T14:37:41;3.10;;;1.58;;
47635;SDS011;33364;50.766;15.338;2023-07-13T14:40:18;5.72;;;1.70;;
47635;SDS011;33364;50.766;15.338;2023-07-13T14:42:49;2.92;;;1.30;;
47635;SDS011;33364;50.766;15.338;2023-07-13T14:45:18;4.57;;;1.45;;
47635;SDS011;33364;50.766;15.338;2023-07-13T14:47:45;2.03;;;1.27;;
47635;SDS011;33364;50.766;15.338;2023-07-13T14:50:16;7.53;;;1.70;;
47635;SDS011;33364;50.766;15.338;2023-07-13T14:52:45;2.88;;;1.40;;
47635;SDS011;33364;50.766;15.338;2023-07-13T14:55:15;5.25;;;1.50;;
47635;SDS011;33364;50.766;15.338;2023-07-13T14:57:43;5.13;;;1.48;;
47635;SDS011;33364;50.766;15.338;2023-07-13T15:00:16;2.33;;;1.70;;
47635;SDS011;33364;50.766;15.338;2023-07-13T15:02:44;4.15;;;1.40;;
47635;SDS011;33364;50.766;15.338;2023-07-13T15:05:14;3.20;;;1.45;;
47635;SDS011;33364;50.766;15.338;2023-07-13T15:07:42;2.35;;;1.20;;
47635;SDS011;33364;50.766;15.338;2023-07-13T15:10:18;2.45;;;1.35;;
47635;SDS011;33364;50.766;15.338;2023-07-13T15:12:46;4.13;;;1.50;;
47635;SDS011;33364;50.766;15.338;2023-07-13T15:15:13;5.03;;;1.58;;
47635;SDS011;33364;50.766;15.338;2023-07-13T15:17:40;2.25;;;1.13;;
47635;SDS011;33364;50.766;15.338;2023-07-13T15:22:57;2.95;;;1.30;;